Time;durP1;ratioP1;P1;durP2;ratioP2;P2;SDS_P1;SDS_P2;PMS_P1;PMS_P2;Temp;Humidity;BMP_temperature;BMP_pressure;BME280_temperature;BME280_humidity;BME280_pressure;Samples;Min_cycle;Max_cycle;Signal;HPM_P1;HPM_P2
2022/01/27 00:04:22;;;;;;;47.03;19.77;;;;;;;3.65;95.30;102123.28;15279424;19;20307;-67
2022/01/27 00:09:41;;;;;;;49.53;18.92;;;;;;;3.68;95.07;102100.16;15272055;19;20014;-68
2022/01/27 00:14:57;;;;;;;55.75;21.85;;;;;;;3.66;95.27;102098.25;15268901;19;20428;-68
2022/01/27 00:19:58;;;;;;;58.72;20.65;;;;;;;3.60;95.21;102096.16;15269590;19;20024;-68
2022/01/27 00:25:02;;;;;;;50.33;20.05;;;;;;;3.61;95.28;102076.34;15271806;19;20021;-68
2022/01/27 00:30:07;;;;;;;48.22;19.25;;;;;;;3.63;94.63;102060.06;15272249;19;20020;-68
2022/01/27 00:35:09;;;;;;;58.03;20.85;;;;;;;3.56;95.18;102013.88;15270038;19;20078;-68
2022/01/27 00:40:12;;;;;;;47.13;19.20;;;;;;;3.58;94.74;102030.41;15268184;19;20021;-68
2022/01/27 00:45:13;;;;;;;45.90;18.50;;;;;;;3.67;94.54;102040.47;15268019;19;20015;-68
2022/01/27 00:50:17;;;;;;;45.58;19.52;;;;;;;3.69;94.26;102025.91;15269107;19;20088;-69
2022/01/27 00:55:21;;;;;;;46.55;17.73;;;;;;;3.71;94.42;102027.81;15269132;19;20015;-68
2022/01/27 01:00:29;;;;;;;43.28;18.58;;;;;;;3.73;94.00;102020.13;15268525;19;20091;-66
2022/01/27 01:15:40;;;;;;;43.35;15.90;;;;;;;3.74;94.16;101996.03;15267326;19;20537;-69
2022/01/27 01:31:44;;;;;;;44.58;17.85;;;;;;;3.76;93.46;101957.28;15284295;19;20023;-68
2022/01/27 01:36:37;;;;;;;41.03;17.30;;;;;;;3.78;93.12;101950.47;15281363;19;20010;-68
2022/01/27 01:41:39;;;;;;;39.95;17.40;;;;;;;3.80;93.33;101949.78;15285415;19;20489;-68
2022/01/27 01:46:41;;;;;;;47.25;17.95;;;;;;;3.77;93.06;101933.13;15279383;19;20413;-68
2022/01/27 01:51:43;;;;;;;41.65;18.08;;;;;;;3.77;93.06;101920.19;15283973;19;20031;-68
2022/01/27 01:56:46;;;;;;;42.50;17.45;;;;;;;3.77;93.22;101927.94;15277503;19;20077;-68
2022/01/27 02:01:48;;;;;;;42.05;17.40;;;;;;;3.72;93.06;101935.44;15282262;19;20427;-67
2022/01/27 02:06:54;;;;;;;47.28;18.48;;;;;;;3.75;92.80;101922.69;15280868;19;20408;-68
2022/01/27 02:22:39;;;;;;;50.08;19.38;;;;;;;3.68;92.80;101900.69;15281098;19;20035;-68
2022/01/27 02:27:41;;;;;;;45.40;17.05;;;;;;;3.69;92.71;101886.03;15276319;19;20497;-68
2022/01/27 02:32:44;;;;;;;43.72;17.17;;;;;;;3.70;92.59;101886.13;15276586;19;20435;-68
2022/01/27 02:37:45;;;;;;;46.97;18.33;;;;;;;3.70;92.59;101873.16;15273879;19;20027;-69
2022/01/27 02:42:47;;;;;;;36.80;15.52;;;;;;;3.83;92.35;101880.03;15277254;19;20611;-68
2022/01/27 02:47:49;;;;;;;36.63;17.55;;;;;;;3.82;92.27;101890.28;15276976;19;20467;-68
2022/01/27 02:52:50;;;;;;;38.75;15.45;;;;;;;3.91;91.65;101872.72;15277523;19;20050;-68
2022/01/27 02:57:55;;;;;;;38.58;15.88;;;;;;;3.85;91.83;101838.66;15275733;19;20027;-68
2022/01/27 03:03:01;;;;;;;41.28;17.70;;;;;;;3.92;91.61;101830.47;15274909;19;20473;-68
2022/01/27 03:08:03;;;;;;;39.03;15.93;;;;;;;3.93;91.62;101837.41;15275101;19;20358;-68
2022/01/27 03:13:05;;;;;;;40.05;16.27;;;;;;;3.93;91.36;101837.41;15274734;19;20010;-68
2022/01/27 03:18:07;;;;;;;34.45;15.23;;;;;;;3.95;91.69;101842.69;15276008;19;20771;-68
2022/01/27 03:23:10;;;;;;;41.17;18.08;;;;;;;3.91;91.59;101823.47;15275027;19;20042;-68
2022/01/27 03:28:11;;;;;;;33.00;14.43;;;;;;;3.93;91.21;101823.56;15273830;19;20097;-68
2022/01/27 03:33:13;;;;;;;39.15;15.82;;;;;;;4.00;91.45;101807.59;15273319;19;20783;-68
2022/01/27 03:38:15;;;;;;;42.10;17.55;;;;;;;3.95;91.53;101786.59;15271046;19;20027;-69
2022/01/27 03:43:17;;;;;;;40.42;16.98;;;;;;;3.99;91.18;101790.25;15269334;19;20023;-68
2022/01/27 03:48:19;;;;;;;33.35;15.70;;;;;;;4.00;91.28;101792.94;15271807;19;20081;-69
2022/01/27 03:53:21;;;;;;;41.75;16.75;;;;;;;3.96;91.12;101803.91;15271322;19;20018;-69
2022/01/27 03:58:23;;;;;;;37.03;15.57;;;;;;;3.95;91.40;101789.19;15272161;19;20102;-69
2022/01/27 04:03:28;;;;;;;35.83;16.10;;;;;;;3.94;91.75;101766.66;15270064;19;20045;-69
2022/01/27 04:08:29;;;;;;;50.15;18.88;;;;;;;3.86;92.75;101770.50;15272606;19;20589;-68
2022/01/27 04:13:31;;;;;;;42.75;17.73;;;;;;;3.77;93.37;101762.16;15268854;19;20036;-68
2022/01/27 04:18:33;;;;;;;39.63;17.85;;;;;;;3.83;93.15;101778.97;15267718;19;20006;-68
2022/01/27 04:23:34;;;;;;;46.90;18.52;;;;;;;3.79;93.32;101760.56;15269537;19;20621;-69
2022/01/27 04:28:38;;;;;;;40.72;16.55;;;;;;;3.78;93.27;101758.75;15270501;19;20015;-68
2022/01/27 04:33:40;;;;;;;39.20;18.20;;;;;;;3.78;93.09;101727.66;15269978;19;20458;-69
2022/01/27 04:39:00;;;;;;;40.75;17.25;;;;;;;3.84;93.33;101734.13;15268679;19;20022;-69
2022/01/27 04:49:08;;;;;;;39.40;16.52;;;;;;;3.74;94.41;101734.38;15271184;19;20017;-69
2022/01/27 04:54:20;;;;;;;38.63;15.75;;;;;;;3.80;93.65;101726.06;15266227;19;20024;-69
2022/01/27 04:59:27;;;;;;;35.80;15.40;;;;;;;3.82;93.94;101727.06;15282040;19;20117;-68
2022/01/27 05:04:40;;;;;;;38.20;16.00;;;;;;;3.78;94.21;101728.56;15285464;19;20017;-68
2022/01/27 05:09:51;;;;;;;42.47;18.05;;;;;;;3.75;94.82;101707.66;15283353;19;20018;-68
2022/01/27 05:14:54;;;;;;;36.45;16.98;;;;;;;3.67;96.00;101719.25;15280772;19;20010;-68
2022/01/27 05:19:56;;;;;;;37.08;14.35;;;;;;;3.54;97.28;101715.03;15278945;19;20372;-68
2022/01/27 05:24:58;;;;;;;35.78;17.15;;;;;;;3.46;98.37;101703.31;15279858;19;20526;-69
2022/01/27 05:30:00;;;;;;;44.83;16.55;;;;;;;3.43;98.62;101692.78;15283690;19;20018;-68
2022/01/27 05:35:02;;;;;;;37.90;15.80;;;;;;;3.46;98.75;101672.25;15279490;19;20082;-68
2022/01/27 05:40:05;;;;;;;41.80;18.65;;;;;;;3.38;98.57;101670.88;15279780;19;20035;-69
2022/01/27 05:45:07;;;;;;;46.90;16.63;;;;;;;3.32;98.99;101658.50;15279170;19;20328;-68
2022/01/27 05:50:09;;;;;;;43.15;17.60;;;;;;;3.34;98.55;101662.94;15282069;19;20011;-69
2022/01/27 05:55:10;;;;;;;45.03;16.70;;;;;;;3.28;99.13;101649.63;15277786;19;20015;-68
2022/01/27 06:00:12;;;;;;;47.80;19.05;;;;;;;3.28;99.80;101643.56;15275257;19;20025;-68
2022/01/27 06:05:15;;;;;;;41.85;17.65;;;;;;;3.23;100.00;101637.19;15277563;19;20592;-68
2022/01/27 06:10:17;;;;;;;48.03;18.88;;;;;;;3.15;100.00;101629.88;15277990;19;20018;-68
2022/01/27 06:15:21;;;;;;;46.80;19.05;;;;;;;3.11;100.00;101621.84;15276137;19;20316;-68
2022/01/27 06:20:24;;;;;;;49.60;21.00;;;;;;;3.09;100.00;101637.28;15280004;19;20007;-68
2022/01/27 06:25:27;;;;;;;53.63;20.13;;;;;;;3.07;100.00;101631.09;15276878;19;20018;-68
2022/01/27 06:30:29;;;;;;;50.83;20.27;;;;;;;3.06;100.00;101629.31;15278659;19;20087;-68
2022/01/27 06:35:31;;;;;;;49.03;21.35;;;;;;;3.05;100.00;101624.94;15275090;19;20018;-68
2022/01/27 06:40:32;;;;;;;47.17;19.92;;;;;;;3.12;100.00;101609.00;15276791;19;20035;-68
2022/01/27 06:45:34;;;;;;;43.42;18.90;;;;;;;3.10;100.00;101602.81;15274995;19;20103;-68
2022/01/27 06:50:37;;;;;;;38.97;17.45;;;;;;;3.09;100.00;101597.53;15278887;19;20014;-68
2022/01/27 06:55:39;;;;;;;37.28;17.20;;;;;;;3.12;100.00;101597.72;15277079;19;20081;-67
2022/01/27 07:00:41;;;;;;;41.30;19.20;;;;;;;3.07;100.00;101599.16;15277033;19;20021;-68
2022/01/27 07:05:42;;;;;;;43.85;17.38;;;;;;;3.10;100.00;101589.00;15282777;19;20018;-69
2022/01/27 07:10:44;;;;;;;47.72;16.95;;;;;;;3.11;100.00;101591.69;15278147;19;20006;-69
2022/01/27 07:15:46;;;;;;;41.08;17.58;;;;;;;3.16;100.00;101595.41;15272099;19;20607;-68
2022/01/27 07:20:47;;;;;;;37.22;15.77;;;;;;;3.19;100.00;101585.25;15275764;19;20123;-69
2022/01/27 07:25:49;;;;;;;36.75;15.77;;;;;;;3.24;100.00;101582.03;15273181;19;20006;-69
2022/01/27 07:30:51;;;;;;;35.47;14.23;;;;;;;3.27;100.00;101583.16;15278047;19;20086;-68
2022/01/27 07:35:52;;;;;;;38.08;14.88;;;;;;;3.30;100.00;101583.31;15274002;19;20074;-69
2022/01/27 07:40:54;;;;;;;30.45;14.18;;;;;;;3.36;100.00;101577.59;15274154;19;20014;-68
2022/01/27 07:45:56;;;;;;;31.52;12.93;;;;;;;3.44;100.00;101565.09;15271407;19;20819;-68
2022/01/27 07:50:57;;;;;;;32.25;13.52;;;;;;;3.47;100.00;101575.66;15276527;19;20037;-68
2022/01/27 07:56:02;;;;;;;34.08;12.93;;;;;;;3.60;100.00;101579.84;15272030;19;20023;-68
2022/01/27 08:01:04;;;;;;;36.72;13.57;;;;;;;3.63;100.00;101574.84;15265873;19;20110;-68
2022/01/27 08:06:07;;;;;;;28.27;13.20;;;;;;;3.66;100.00;101575.91;15261277;19;20514;-69
2022/01/27 08:11:08;;;;;;;26.05;13.40;;;;;;;3.77;100.00;101560.06;15270393;19;20458;-68
2022/01/27 08:16:10;;;;;;;29.10;12.75;;;;;;;3.85;100.00;101556.25;15265769;19;20919;-69
2022/01/27 08:21:20;;;;;;;28.48;12.88;;;;;;;3.85;100.00;101559.72;15257189;19;20018;-68
2022/01/27 08:26:31;;;;;;;26.30;12.18;;;;;;;3.96;100.00;101542.16;15269691;19;20512;-69
2022/01/27 08:31:42;;;;;;;24.20;10.93;;;;;;;4.03;100.00;101544.31;15279927;19;20042;-69
2022/01/27 08:36:44;;;;;;;26.15;9.40;;;;;;;4.10;100.00;101545.56;15280092;19;20033;-68
2022/01/27 08:41:46;;;;;;;27.95;11.43;;;;;;;4.17;100.00;101537.28;15284592;19;20025;-68
2022/01/27 08:46:48;;;;;;;28.95;11.20;;;;;;;4.25;100.00;101542.91;15284081;19;20045;-68
2022/01/27 08:51:50;;;;;;;23.92;11.30;;;;;;;4.27;100.00;101535.22;15288959;19;20015;-69
2022/01/27 08:56:52;;;;;;;25.35;9.98;;;;;;;4.33;100.00;101531.25;15280161;19;20054;-68
2022/01/27 09:01:54;;;;;;;25.90;10.70;;;;;;;4.39;100.00;101531.56;15281981;19;20018;-68
2022/01/27 09:06:57;;;;;;;22.45;9.88;;;;;;;4.48;100.00;101509.56;15283625;19;20017;-68
2022/01/27 09:12:00;;;;;;;19.35;9.30;;;;;;;4.50;100.00;101501.03;15286131;19;20077;-69
2022/01/27 09:17:02;;;;;;;25.00;9.60;;;;;;;4.57;100.00;101523.00;15282217;19;20052;-68
2022/01/27 09:22:11;;;;;;;23.23;9.10;;;;;;;4.64;100.00;101519.94;15280743;19;20025;-69
2022/01/27 09:27:13;;;;;;;22.27;9.93;;;;;;;4.67;100.00;101519.19;15278723;19;20074;-68
2022/01/27 09:32:15;;;;;;;16.75;7.93;;;;;;;4.72;100.00;101523.81;15285958;19;20022;-68
2022/01/27 09:37:17;;;;;;;17.88;8.93;;;;;;;4.76;100.00;101514.50;15279648;19;20771;-69
2022/01/27 09:42:20;;;;;;;18.90;8.60;;;;;;;4.86;100.00;101523.66;15278899;19;20017;-69
2022/01/27 09:47:27;;;;;;;20.88;9.27;;;;;;;4.86;100.00;101526.25;15280231;19;20058;-67
2022/01/27 09:52:29;;;;;;;22.77;8.90;;;;;;;4.92;100.00;101516.16;15283473;19;20031;-67
2022/01/27 09:57:30;;;;;;;28.23;9.95;;;;;;;5.04;100.00;101529.78;15278081;19;20042;-69
2022/01/27 10:02:32;;;;;;;21.17;8.95;;;;;;;5.12;100.00;101525.00;15280988;19;20031;-68
2022/01/27 10:07:42;;;;;;;26.98;10.63;;;;;;;5.16;100.00;101531.22;15278870;19;20033;-69
2022/01/27 10:12:49;;;;;;;22.27;9.98;;;;;;;5.17;100.00;101527.84;15278826;19;20403;-69
2022/01/27 10:18:11;;;;;;;22.73;9.88;;;;;;;5.29;100.00;101531.03;15277975;19;20010;-68
2022/01/27 10:23:27;;;;;;;32.38;11.05;;;;;;;5.35;100.00;101535.66;15280557;19;20870;-68
2022/01/27 10:33:49;;;;;;;28.45;10.20;;;;;;;5.47;100.00;101534.53;15278786;19;20027;-68
2022/01/27 10:38:56;;;;;;;26.20;10.15;;;;;;;5.57;100.00;101535.00;15280118;19;20014;-69
2022/01/27 10:44:11;;;;;;;24.17;9.98;;;;;;;5.63;100.00;101524.91;15278150;19;20019;-69
2022/01/27 10:49:24;;;;;;;32.95;10.00;;;;;;;5.75;100.00;101529.81;15280640;19;20038;-69
2022/01/27 10:54:37;;;;;;;25.33;9.75;;;;;;;5.86;100.00;101525.16;15275653;19;20021;-68
2022/01/27 10:59:40;;;;;;;31.33;10.32;;;;;;;5.93;100.00;101520.31;15278172;19;20024;-69
2022/01/27 11:04:43;;;;;;;29.25;9.25;;;;;;;6.01;100.00;101531.13;15281639;19;20421;-69
2022/01/27 11:09:45;;;;;;;23.83;8.95;;;;;;;6.04;100.00;101512.19;15277679;19;20011;-69
2022/01/27 11:14:49;;;;;;;30.15;9.02;;;;;;;6.05;100.00;101519.13;15273431;19;20087;-69
2022/01/27 11:30:17;;;;;;;21.17;6.78;;;;;;;6.17;100.00;101515.41;15277749;19;20031;-68
2022/01/27 11:35:24;;;;;;;20.80;6.57;;;;;;;6.28;100.00;101509.81;15171199;19;2004679;-69
2022/01/27 11:40:46;;;;;;;18.77;4.38;;;;;;;6.29;100.00;101504.69;15273843;19;20167;-70
2022/01/27 11:45:51;;;;;;;21.40;5.00;;;;;;;6.29;100.00;101504.69;15273613;19;20018;-69
2022/01/27 11:51:09;;;;;;;19.23;5.30;;;;;;;6.50;100.00;101496.06;15277560;19;20090;-70
2022/01/27 11:56:23;;;;;;;15.48;3.70;;;;;;;6.71;100.00;101498.72;15273939;19;20023;-70
2022/01/27 12:01:26;;;;;;;25.92;3.85;;;;;;;6.92;100.00;101492.69;15275349;19;20023;-67
2022/01/27 12:06:32;;;;;;;21.95;4.05;;;;;;;6.95;100.00;101498.03;15272781;19;20493;-69
2022/01/27 12:11:43;;;;;;;20.85;3.97;;;;;;;7.08;100.00;101506.44;15273207;19;20415;-69
2022/01/27 12:17:10;;;;;;;15.52;3.30;;;;;;;6.92;100.00;101497.91;15270488;19;20019;-69
2022/01/27 12:22:18;;;;;;;15.25;3.42;;;;;;;6.94;100.00;101491.06;15269698;19;20038;-69
2022/01/27 12:27:20;;;;;;;19.60;3.28;;;;;;;7.05;100.00;101489.78;15269817;19;20018;-69
2022/01/27 12:32:41;;;;;;;21.17;2.92;;;;;;;6.91;100.00;101499.63;15272454;19;20360;-70
2022/01/27 12:37:48;;;;;;;11.68;2.45;;;;;;;6.87;100.00;101492.50;15269187;19;20074;-70
2022/01/27 12:43:03;;;;;;;13.20;2.70;;;;;;;6.85;100.00;101495.03;15269600;19;20045;-70
2022/01/27 12:48:16;;;;;;;15.63;2.75;;;;;;;6.83;100.00;101496.69;15271458;19;20085;-68
2022/01/27 12:53:19;;;;;;;16.25;3.00;;;;;;;6.80;100.00;101480.94;15269040;19;20023;-69
2022/01/27 12:58:20;;;;;;;13.68;2.10;;;;;;;6.82;100.00;101492.28;15270642;19;20014;-69
2022/01/27 13:03:22;;;;;;;18.85;2.40;;;;;;;6.83;100.00;101486.28;15282210;19;20098;-69
2022/01/27 13:08:29;;;;;;;12.32;2.25;;;;;;;6.95;100.00;101490.22;15270897;19;20720;-69
2022/01/27 13:13:35;;;;;;;22.73;2.42;;;;;;;7.10;99.97;101483.09;15269262;19;20019;-68
2022/01/27 13:18:44;;;;;;;22.85;3.15;;;;;;;7.23;99.60;101484.47;15280861;19;20022;-68
2022/01/27 13:23:48;;;;;;;20.83;2.53;;;;;;;7.22;98.30;101475.78;15283010;19;20018;-69
2022/01/27 13:28:56;;;;;;;20.55;3.78;;;;;;;7.23;98.51;101477.53;15285669;19;20007;-69
2022/01/27 13:34:01;;;;;;;21.38;3.13;;;;;;;7.21;97.70;101480.94;15284124;19;20082;-68
2022/01/27 13:39:14;;;;;;;23.80;2.85;;;;;;;7.08;97.86;101475.19;15283355;19;20179;-69
2022/01/27 13:44:20;;;;;;;11.80;2.38;;;;;;;7.18;97.12;101478.19;15280701;19;20526;-68
2022/01/27 13:49:32;;;;;;;9.73;1.83;;;;;;;7.04;97.61;101480.19;15282686;19;20010;-67
2022/01/27 13:54:36;;;;;;;14.73;2.00;;;;;;;7.07;97.77;101488.13;15281810;19;20018;-69
2022/01/27 14:00:08;;;;;;;18.25;2.00;;;;;;;7.26;96.67;101495.91;15282060;19;20023;-69
2022/01/27 14:05:13;;;;;;;20.27;2.40;;;;;;;7.32;95.71;101505.69;15190749;19;2004393;-68
2022/01/27 14:10:20;;;;;;;22.15;2.50;;;;;;;7.35;94.97;101502.34;15282065;19;20014;-68
2022/01/27 14:15:47;;;;;;;12.77;2.92;;;;;;;7.33;94.92;101511.81;15280164;19;20035;-69
2022/01/27 14:21:03;;;;;;;14.00;2.35;;;;;;;7.26;94.40;101505.44;15281814;19;20015;-69
2022/01/27 14:26:07;;;;;;;16.98;1.73;;;;;;;7.18;94.28;101507.72;15278180;19;20018;-68
2022/01/27 14:31:08;;;;;;;14.43;2.20;;;;;;;7.19;93.37;101529.44;15277238;19;20014;-67
2022/01/27 14:36:11;;;;;;;7.55;1.80;;;;;;;7.02;93.87;101520.91;15278750;19;20426;-67
2022/01/27 14:41:13;;;;;;;19.73;2.50;;;;;;;6.96;93.68;101518.94;15278434;19;20397;-68
2022/01/27 14:46:22;;;;;;;12.73;1.98;;;;;;;6.96;92.35;101536.28;15278806;19;20014;-68
2022/01/27 14:51:26;;;;;;;17.57;2.30;;;;;;;6.90;90.79;101542.09;15281102;19;20015;-68
2022/01/27 14:56:29;;;;;;;12.50;1.83;;;;;;;6.90;89.88;101544.69;15276969;19;20090;-68
2022/01/27 15:01:31;;;;;;;18.55;2.47;;;;;;;6.72;90.75;101553.50;15280586;19;20057;-67
2022/01/27 15:06:34;;;;;;;14.95;2.10;;;;;;;6.82;90.82;101554.78;15288142;19;20034;-67
2022/01/27 15:11:35;;;;;;;14.48;1.88;;;;;;;6.72;90.83;101561.28;15279057;19;20031;-68
2022/01/27 15:22:16;;;;;;;13.88;2.38;;;;;;;6.62;90.81;101545.16;15274906;19;20025;-69
2022/01/27 15:27:18;;;;;;;10.95;2.63;;;;;;;6.60;89.54;101557.22;15274801;19;20039;-68
2022/01/27 15:32:21;;;;;;;14.00;2.85;;;;;;;6.46;90.85;101564.41;15277393;19;20022;-69
2022/01/27 15:37:26;;;;;;;15.38;1.55;;;;;;;6.39;90.18;101557.13;15275309;19;20018;-69
2022/01/27 15:42:27;;;;;;;16.48;2.13;;;;;;;6.30;90.11;101552.41;15273360;19;20019;-68
2022/01/27 15:47:29;;;;;;;19.40;2.85;;;;;;;6.22;90.48;101546.84;15272398;19;20007;-68
2022/01/27 15:52:33;;;;;;;23.40;3.15;;;;;;;6.12;90.10;101552.41;15276448;19;20486;-68
2022/01/27 15:57:35;;;;;;;19.13;2.67;;;;;;;6.03;91.40;101568.47;15274636;19;20010;-67
2022/01/27 16:02:39;;;;;;;11.48;1.77;;;;;;;6.05;91.20;101563.34;15282397;19;20042;-68
2022/01/27 16:07:41;;;;;;;11.85;1.95;;;;;;;5.94;91.93;101563.69;15275646;19;20426;-67
2022/01/27 16:12:51;;;;;;;12.57;1.88;;;;;;;5.66;88.22;101603.91;15273947;19;20363;-68
2022/01/27 16:17:53;;;;;;;7.15;0.93;;;;;;;5.10;90.54;101592.44;15273009;19;20078;-68
2022/01/27 16:22:57;;;;;;;8.88;1.30;;;;;;;4.86;89.88;101585.94;15271482;19;20027;-68
2022/01/27 16:27:59;;;;;;;12.30;1.45;;;;;;;4.84;90.53;101592.75;15274413;19;20038;-67
2022/01/27 16:33:01;;;;;;;5.63;1.08;;;;;;;4.77;90.66;101599.28;15272906;19;20083;-67
2022/01/27 16:38:02;;;;;;;5.88;1.35;;;;;;;4.69;91.61;101606.66;15272783;19;20017;-69
2022/01/27 16:43:04;;;;;;;8.55;1.42;;;;;;;4.75;91.28;101609.59;15273166;19;20082;-69
2022/01/27 16:48:06;;;;;;;11.55;2.15;;;;;;;4.73;91.31;101611.22;15273050;19;20030;-68
2022/01/27 16:53:08;;;;;;;9.20;1.52;;;;;;;4.64;91.74;101612.41;15281605;19;20010;-68
2022/01/27 16:58:10;;;;;;;9.68;1.65;;;;;;;4.68;91.99;101624.75;15287702;19;20090;-68
2022/01/27 17:03:12;;;;;;;15.40;2.40;;;;;;;4.60;92.27;101621.75;15289702;19;20014;-69
2022/01/27 17:08:20;;;;;;;21.15;2.85;;;;;;;4.71;90.72;101636.19;15287270;19;20077;-68
2022/01/27 17:13:22;;;;;;;18.42;2.40;;;;;;;4.69;91.53;101642.13;15284792;19;20026;-67
2022/01/27 17:18:24;;;;;;;16.05;2.80;;;;;;;4.77;90.72;101652.09;15286105;19;20458;-68
2022/01/27 17:23:26;;;;;;;9.13;2.50;;;;;;;4.64;91.44;101647.06;15283191;19;20561;-68
2022/01/27 17:28:28;;;;;;;24.58;2.72;;;;;;;4.62;90.79;101652.97;15287820;19;20018;-68
2022/01/27 17:33:29;;;;;;;18.67;4.40;;;;;;;4.73;89.52;101665.72;15284757;19;20066;-67
2022/01/27 17:38:31;;;;;;;42.72;9.75;;;;;;;4.78;88.82;101672.03;15285865;19;20043;-69
2022/01/27 17:43:44;;;;;;;15.02;3.05;;;;;;;4.86;88.95;101668.97;15282246;19;20073;-68
2022/01/27 17:48:45;;;;;;;13.90;4.10;;;;;;;4.87;88.92;101674.25;15284364;19;20051;-68
2022/01/27 17:53:47;;;;;;;10.38;2.78;;;;;;;4.81;89.44;101657.47;15283915;19;20021;-68
2022/01/27 17:58:49;;;;;;;21.33;2.35;;;;;;;4.78;89.50;101679.81;15283855;19;20420;-68
2022/01/27 18:03:52;;;;;;;12.02;2.30;;;;;;;4.92;88.06;101693.56;15284454;19;20014;-68
2022/01/27 18:08:55;;;;;;;16.58;2.58;;;;;;;4.83;89.11;101697.34;15285162;19;20476;-67
2022/01/27 18:14:00;;;;;;;15.88;3.38;;;;;;;4.89;89.23;101714.13;15280086;19;20430;-68
2022/01/27 18:19:02;;;;;;;11.60;2.42;;;;;;;4.90;89.49;101715.06;15282573;19;20010;-67
2022/01/27 18:24:04;;;;;;;7.78;2.67;;;;;;;4.63;88.90;101710.13;15280705;19;20018;-68
2022/01/27 18:29:06;;;;;;;8.88;2.50;;;;;;;4.46;89.25;101726.41;15282506;19;20034;-68
2022/01/27 18:34:08;;;;;;;11.00;2.00;;;;;;;4.33;89.26;101712.75;15280034;19;20018;-68
2022/01/27 18:39:13;;;;;;;10.55;1.17;;;;;;;4.15;89.42;101729.84;15284090;19;20094;-67
2022/01/27 18:44:15;;;;;;;12.98;1.85;;;;;;;4.02;89.72;101739.50;15278476;19;20023;-69
2022/01/27 18:49:19;;;;;;;7.82;1.65;;;;;;;3.93;90.78;101743.25;15279287;19;20014;-68
2022/01/27 18:54:20;;;;;;;10.75;1.60;;;;;;;3.88;91.48;101737.78;15277037;19;20028;-68
2022/01/27 18:59:22;;;;;;;11.50;1.88;;;;;;;3.94;91.65;101735.56;15280035;19;20022;-68
2022/01/27 19:04:24;;;;;;;14.10;1.77;;;;;;;3.88;91.36;101750.75;15290108;19;20026;-68
2022/01/27 19:09:27;;;;;;;12.85;2.33;;;;;;;3.94;91.18;101753.69;15281942;19;20019;-68
2022/01/27 19:14:29;;;;;;;14.00;3.17;;;;;;;3.89;90.60;101757.72;15276442;19;20014;-68
2022/01/27 19:19:30;;;;;;;17.95;3.28;;;;;;;3.88;90.21;101769.75;15279213;19;20585;-68
2022/01/27 19:24:32;;;;;;;9.52;1.95;;;;;;;3.83;90.77;101767.72;15277212;19;20014;-68
2022/01/27 19:29:38;;;;;;;11.43;2.30;;;;;;;3.77;91.36;101777.69;15282031;19;20031;-68
2022/01/27 19:34:40;;;;;;;13.23;3.10;;;;;;;3.82;91.28;101786.66;15279978;19;20010;-68
2022/01/27 19:39:42;;;;;;;10.95;2.72;;;;;;;3.85;91.19;101787.72;15278638;19;20642;-68
2022/01/27 19:44:44;;;;;;;13.68;1.48;;;;;;;3.75;92.06;101789.66;15278135;19;20015;-68
2022/01/27 19:49:45;;;;;;;11.63;2.10;;;;;;;3.84;91.85;101798.91;15279817;19;20034;-69
2022/01/27 19:54:50;;;;;;;12.00;1.52;;;;;;;3.89;92.02;101791.41;15272989;19;20018;-68
2022/01/27 19:59:52;;;;;;;12.05;2.55;;;;;;;4.00;90.94;101812.78;15276456;19;20023;-67
2022/01/27 20:05:14;;;;;;;13.55;2.95;;;;;;;4.00;91.16;101816.25;15176274;19;2004197;-67
2022/01/27 20:10:16;;;;;;;13.70;2.47;;;;;;;4.00;90.86;101813.66;15275728;19;20014;-68
2022/01/27 20:15:18;;;;;;;10.75;1.73;;;;;;;3.99;91.37;101822.22;15273219;19;20854;-68
2022/01/27 20:20:20;;;;;;;14.93;2.25;;;;;;;4.00;91.38;101811.06;15275117;19;20041;-68
2022/01/27 20:25:21;;;;;;;16.67;2.25;;;;;;;3.95;91.39;101820.28;15269230;19;20018;-68
2022/01/27 20:30:24;;;;;;;11.98;2.15;;;;;;;3.80;91.85;101811.56;15272896;19;20468;-68
2022/01/27 20:35:25;;;;;;;11.93;1.88;;;;;;;3.91;90.59;101832.97;15271121;19;21020;-68
2022/01/27 20:40:27;;;;;;;12.27;2.47;;;;;;;3.82;91.19;101849.72;15272680;19;20011;-68
2022/01/27 20:45:29;;;;;;;15.73;2.55;;;;;;;3.85;90.81;101844.72;15268360;19;20025;-68
2022/01/27 20:50:30;;;;;;;8.07;1.90;;;;;;;3.87;91.06;101847.41;15271701;19;20015;-68
2022/01/27 20:55:33;;;;;;;10.48;2.20;;;;;;;3.86;90.54;101859.47;15265916;19;20011;-68
2022/01/27 21:00:39;;;;;;;10.50;1.58;;;;;;;3.85;90.81;101881.00;15271536;19;20082;-66
2022/01/27 21:05:41;;;;;;;6.95;2.03;;;;;;;3.90;90.82;101878.69;15267356;19;20026;-68
2022/01/27 21:10:43;;;;;;;11.20;1.60;;;;;;;3.94;91.16;101870.31;15269768;19;20565;-68
2022/01/27 21:15:45;;;;;;;14.75;2.05;;;;;;;3.96;90.85;101876.47;15265306;19;20011;-68
2022/01/27 21:20:47;;;;;;;8.35;1.23;;;;;;;3.92;91.50;101892.66;15268183;19;20419;-69
2022/01/27 21:25:49;;;;;;;14.30;2.33;;;;;;;3.85;91.37;101914.69;15264127;19;20070;-68
2022/01/27 21:30:50;;;;;;;10.32;1.63;;;;;;;3.80;92.31;101912.59;15270288;19;20545;-68
2022/01/27 21:35:52;;;;;;;21.50;2.60;;;;;;;3.70;92.18;101912.03;15263993;19;20474;-68
2022/01/27 21:40:54;;;;;;;9.32;1.27;;;;;;;3.65;92.09;101926.41;15280826;19;20717;-68
2022/01/27 21:45:56;;;;;;;16.67;1.73;;;;;;;3.59;92.10;101926.00;15279813;19;20019;-68
2022/01/27 21:50:58;;;;;;;15.35;1.95;;;;;;;3.50;91.56;101946.16;15282352;19;20022;-68
2022/01/27 21:55:59;;;;;;;8.90;1.67;;;;;;;3.54;90.47;101948.13;15279899;19;20018;-68
2022/01/27 22:01:01;;;;;;;12.70;1.55;;;;;;;3.47;89.84;101953.72;15283528;19;20019;-67
2022/01/27 22:06:03;;;;;;;13.80;1.52;;;;;;;3.38;88.91;101966.03;15286565;19;20018;-67
2022/01/27 22:11:06;;;;;;;7.53;1.40;;;;;;;3.37;88.51;101965.16;15280026;19;20798;-67
2022/01/27 22:16:08;;;;;;;9.18;2.17;;;;;;;3.33;88.87;101971.84;15277204;19;20014;-68
2022/01/27 22:21:11;;;;;;;15.90;1.67;;;;;;;3.41;88.37;101989.53;15280991;19;20077;-68
2022/01/27 22:26:12;;;;;;;12.07;1.67;;;;;;;3.34;88.95;101989.16;15278546;19;20028;-68
2022/01/27 22:31:14;;;;;;;10.55;1.50;;;;;;;3.28;89.70;101993.03;15281436;19;20022;-68
2022/01/27 22:36:16;;;;;;;8.55;1.13;;;;;;;3.18;90.19;102007.06;15277679;19;20042;-67
2022/01/27 22:41:17;;;;;;;10.23;1.58;;;;;;;3.19;90.84;102003.69;15278215;19;20018;-68
2022/01/27 22:46:19;;;;;;;18.65;2.13;;;;;;;3.30;91.04;102023.41;15274649;19;20018;-67
2022/01/27 22:51:21;;;;;;;12.02;1.45;;;;;;;3.30;90.68;102028.59;15278127;19;20345;-68
2022/01/27 22:56:24;;;;;;;20.40;1.90;;;;;;;3.31;90.96;102034.66;15273651;19;20520;-68
2022/01/27 23:01:26;;;;;;;16.30;2.65;;;;;;;3.42;90.17;102035.38;15279424;19;20014;-66
2022/01/27 23:06:28;;;;;;;21.45;2.60;;;;;;;3.41;89.42;102030.97;15279138;19;20015;-67
2022/01/27 23:11:30;;;;;;;11.07;1.75;;;;;;;3.26;89.91;102036.03;15278691;19;20078;-68
2022/01/27 23:27:09;;;;;;;;;;;;;;;3.22;90.12;102044.41;15274996;19;20014;-68
2022/01/27 23:32:11;;;;;;;14.77;1.73;;;;;;;3.21;89.65;102051.25;15275877;19;19933;-68
2022/01/27 23:53:06;;;;;;;15.35;2.30;;;;;;;3.30;89.75;102082.06;15271066;19;20014;-68
2022/01/27 23:58:22;;;;;;;8.60;1.38;;;;;;;3.36;87.37;102103.19;15275120;19;20027;-68
